Bookmark and Share
Track history (hours):
 

Overseas Long Beach

More information available from US FCC via Universal Licensing System and Coast Guard Vessel Documentation Center.

Last reported at 2014-Apr-13 12:00 UTC. Time now 2014-Apr-19 06:55 UTC.
Position N 26°06' W 087°48'.

Length 181 m; draft 7.7 m.

Type: Tanker. MMSI: 367703000.

Wind from 120 at 16 knots

Waves 0.5 meters (2 feet), 3 second period

Barometer 1015.0 mb
Air temperature 22.2 ° C
Visibility: greater than 10.8 NM

NotesDate/timePositionNaut miles runAvg speedWind from/ knotsBaromVisibWave heightAir tempDewpointWater temp
2014-Apr-13 12:00N 26°06' W 087°48'41813.3 120 / 161015.010.8 0.522.2
2014-Apr-12 04:31N 25°07' W 080°10'1513.1
2014-Apr-12 03:23N 25°21' W 080°03'1012.6
2014-Apr-12 02:33N 25°31' W 080°02'1312.7
2014-Apr-12 01:33N 25°44' W 080°02'1312.8
2014-Apr-12 00:33N 25°56' W 080°01'1413.5
2014-Apr-11 23:33N 26°10' W 080°01'1413.9
2014-Apr-11 22:33N 26°24' W 080°01'1514.5
2014-Apr-11 21:33N 26°38' W 080°01'1414.2
2014-Apr-11 20:33N 26°53' W 080°00'1313.2
2014-Apr-11 19:33N 27°06' W 080°01'1212.4
2014-Apr-11 18:33N 27°18' W 080°03'6013.1
2014-Apr-11 14:00N 28°18' W 080°06'   090 / 201023.510.8 0.521.717.4
2014-Apr-08 20:30N 26°36' W 079°42'1414.7
2014-Apr-08 19:33N 26°23' W 079°42'1514.7
2014-Apr-08 18:33N 26°08' W 079°45'1514.7
2014-Apr-08 17:34N 25°54' W 079°49'1514.8
2014-Apr-08 16:33N 25°40' W 079°54'1414.0
2014-Apr-08 15:33N 25°26' W 079°57'9515.2
2014-Apr-08 09:18N 24°18' W 081°11'21313.9
2014-Apr-07 18:00N 25°06' W 085°00'31313.6 160 / 251009.510.8 3.527.224.227.0
2014-Apr-06 19:00N 27°00' W 090°24'   140 / 171008.0 5.4 8.025.023.524.0

Dump ship's entire track history

sailing weather and tide predictions

Overseas Long Beach — WAAT — position and weather